Time;durP1;ratioP1;P1;durP2;ratioP2;P2;SDS_P1;SDS_P2;PMS_P1;PMS_P2;Temp;Humidity;BMP_temperature;BMP_pressure;BME280_temperature;BME280_humidity;BME280_pressure;Samples;Min_cycle;Max_cycle;Signal;HPM_P1;HPM_P2
2022/12/15 00:39:36;;;;;;;19.58;11.32;;;;;;;;;;2114996;28;20053;-41
2022/12/15 00:40:37;;;;;;;21.58;11.82;;;;;;;;;;2115023;28;20039;-41
2022/12/15 00:41:38;;;;;;;22.23;13.37;;;;;;;;;;2115067;28;20564;-41
2022/12/15 00:42:39;;;;;;;23.33;11.73;;;;;;;;;;2115175;28;20043;-41
2022/12/15 00:43:40;;;;;;;20.95;12.75;;;;;;;;;;2115047;28;20502;-41
2022/12/15 00:44:41;;;;;;;20.17;12.05;;;;;;;;;;2114903;28;20054;-41
2022/12/15 00:47:02;;;;;;;21.63;10.90;;;;;;;;;;2115083;28;20075;-41
2022/12/15 00:48:04;;;;;;;20.77;12.63;;;;;;;;;;2114942;28;20462;-41
2022/12/15 00:50:50;;;;;;;23.25;14.20;;;;;;;;;;2115118;28;20096;-41
2022/12/15 01:20:58;;;;;;;16.75;9.27;;;;;;;;;;2123271;28;20598;-42
2022/12/15 01:21:59;;;;;;;19.52;11.30;;;;;;;;;;2123578;28;20098;-42
2022/12/15 01:23:00;;;;;;;19.90;11.67;;;;;;;;;;2123339;28;20094;-42
2022/12/15 01:24:01;;;;;;;17.75;10.38;;;;;;;;;;2123214;28;20047;-42
2022/12/15 01:25:03;;;;;;;18.70;9.52;;;;;;;;;;2123300;28;20050;-42
2022/12/15 01:26:04;;;;;;;20.83;12.23;;;;;;;;;;2123274;28;20081;-42
2022/12/15 01:27:05;;;;;;;19.48;11.13;;;;;;;;;;2123220;28;20103;-42
2022/12/15 01:28:07;;;;;;;20.33;12.75;;;;;;;;;;2123299;28;20063;-42
2022/12/15 01:29:08;;;;;;;19.45;11.68;;;;;;;;;;2123143;28;20039;-42
2022/12/15 01:30:11;;;;;;;19.42;10.48;;;;;;;;;;2123128;28;20104;-42
2022/12/15 01:31:12;;;;;;;20.05;10.05;;;;;;;;;;2123064;28;20507;-42
2022/12/15 01:32:13;;;;;;;19.52;11.65;;;;;;;;;;2123274;28;20051;-42
2022/12/15 01:33:14;;;;;;;20.33;11.52;;;;;;;;;;2123120;28;20051;-42
2022/12/15 01:34:16;;;;;;;17.75;9.95;;;;;;;;;;2123255;28;20051;-42
2022/12/15 01:35:17;;;;;;;19.10;12.68;;;;;;;;;;2123134;28;20104;-42
2022/12/15 01:36:18;;;;;;;18.58;9.88;;;;;;;;;;2123236;28;20058;-42
2022/12/15 01:37:19;;;;;;;19.08;11.38;;;;;;;;;;2123432;28;20058;-47
2022/12/15 01:38:20;;;;;;;18.20;9.07;;;;;;;;;;2123296;28;20494;-46
2022/12/15 01:39:22;;;;;;;20.42;12.70;;;;;;;;;;2123093;28;20055;-46
2022/12/15 01:41:41;;;;;;;18.58;11.23;;;;;;;;;;2123135;28;20051;-46
2022/12/15 01:42:43;;;;;;;17.17;9.23;;;;;;;;;;2123264;28;20043;-46
2022/12/15 01:43:45;;;;;;;17.90;9.20;;;;;;;;;;2122991;28;20491;-46
2022/12/15 01:44:46;;;;;;;;;;;;;;;;;;2123439;28;20477;-46
2022/12/15 01:45:48;;;;;;;17.73;9.85;;;;;;;;;;2123044;28;19958;-46
2022/12/15 01:46:51;;;;;;;17.38;9.27;;;;;;;;;;2122996;28;20428;-47
2022/12/15 01:47:54;;;;;;;19.60;11.13;;;;;;;;;;2114490;28;20059;-46
2022/12/15 01:48:58;;;;;;;19.60;11.48;;;;;;;;;;2114625;28;20047;-46
2022/12/15 01:49:59;;;;;;;18.63;9.70;;;;;;;;;;2114562;28;20048;-46
2022/12/15 01:51:03;;;;;;;18.80;11.90;;;;;;;;;;2114430;28;20378;-47
2022/12/15 01:52:06;;;;;;;19.20;10.30;;;;;;;;;;2114702;28;20050;-46
2022/12/15 01:53:07;;;;;;;23.77;12.38;;;;;;;;;;2114623;28;20040;-46
2022/12/15 01:54:11;;;;;;;20.20;10.45;;;;;;;;;;2114657;28;20455;-47
2022/12/15 01:55:12;;;;;;;19.50;10.75;;;;;;;;;;2114961;28;20048;-47
2022/12/15 01:56:14;;;;;;;19.90;11.50;;;;;;;;;;2114431;28;20047;-46
2022/12/15 01:57:17;;;;;;;22.52;12.18;;;;;;;;;;2114497;28;20052;-47
2022/12/15 01:58:19;;;;;;;21.75;11.80;;;;;;;;;;2114550;28;20052;-47
2022/12/15 01:59:22;;;;;;;19.17;11.20;;;;;;;;;;2114636;28;20055;-48
2022/12/15 02:00:23;;;;;;;19.98;10.95;;;;;;;;;;2114323;28;20047;-46
2022/12/15 02:01:24;;;;;;;21.38;12.70;;;;;;;;;;2114939;28;20074;-42
2022/12/15 02:02:27;;;;;;;19.15;10.40;;;;;;;;;;2114527;28;20134;-42
2022/12/15 02:03:28;;;;;;;20.17;10.60;;;;;;;;;;2114503;28;20044;-42
2022/12/15 02:04:31;;;;;;;23.25;13.48;;;;;;;;;;2114748;28;20051;-46
2022/12/15 02:05:32;;;;;;;23.00;12.95;;;;;;;;;;2114469;28;20048;-46
2022/12/15 02:06:34;;;;;;;20.80;10.27;;;;;;;;;;2114338;28;20415;-47
2022/12/15 02:07:35;;;;;;;20.42;10.55;;;;;;;;;;2114518;28;20035;-47
2022/12/15 02:08:36;;;;;;;21.80;12.60;;;;;;;;;;2114583;28;20058;-47
2022/12/15 02:09:37;;;;;;;21.02;11.40;;;;;;;;;;2115927;28;20048;-47
2022/12/15 02:10:44;;;;;;;22.45;11.10;;;;;;;;;;2122852;28;20078;-46
2022/12/15 02:11:56;;;;;;;21.35;9.93;;;;;;;;;;2122847;28;20043;-46
2022/12/15 02:12:57;;;;;;;;;;;;;;;;;;2123512;28;20059;-46
2022/12/15 02:13:59;;;;;;;21.05;8.80;;;;;;;;;;2122882;28;19919;-46
2022/12/15 02:15:06;;;;;;;17.30;9.65;;;;;;;;;;2122975;28;20047;-46
2022/12/15 02:16:10;;;;;;;19.10;11.20;;;;;;;;;;2122894;28;20047;-46
2022/12/15 02:17:16;;;;;;;22.35;10.88;;;;;;;;;;2122839;28;20506;-46
2022/12/15 02:18:21;;;;;;;19.45;11.43;;;;;;;;;;2123060;28;20072;-47
2022/12/15 02:19:39;;;;;;;20.58;10.48;;;;;;;;;;2122836;28;20051;-46
2022/12/15 02:20:43;;;;;;;19.63;9.63;;;;;;;;;;2122704;28;20039;-46
2022/12/15 02:21:46;;;;;;;20.33;11.10;;;;;;;;;;2122937;28;20055;-46
2022/12/15 02:22:59;;;;;;;24.95;13.27;;;;;;;;;;2123032;28;20047;-45
2022/12/15 02:24:18;;;;;;;18.75;9.75;;;;;;;;;;2122845;28;20439;-46
2022/12/15 02:25:42;;;;;;;19.05;10.38;;;;;;;;;;2122750;28;20051;-46
2022/12/15 02:27:05;;;;;;;19.77;10.75;;;;;;;;;;2122938;28;20035;-46
2022/12/15 02:28:09;;;;;;;23.15;11.43;;;;;;;;;;2122950;28;20039;-46
2022/12/15 02:29:15;;;;;;;21.45;11.43;;;;;;;;;;2122843;28;20043;-46
2022/12/15 02:30:19;;;;;;;19.05;10.27;;;;;;;;;;2122850;28;20043;-46
2022/12/15 02:32:43;;;;;;;23.13;11.65;;;;;;;;;;2122766;28;20449;-42
2022/12/15 02:33:49;;;;;;;20.70;11.88;;;;;;;;;;2122686;28;20047;-42
2022/12/15 02:34:53;;;;;;;23.35;11.02;;;;;;;;;;2122820;28;20047;-42
2022/12/15 02:35:56;;;;;;;22.23;11.77;;;;;;;;;;2122808;28;20076;-42
2022/12/15 02:36:59;;;;;;;22.88;11.15;;;;;;;;;;2122821;28;20047;-42
2022/12/15 02:38:01;;;;;;;24.10;11.40;;;;;;;;;;2122398;28;20466;-46
2022/12/15 02:39:03;;;;;;;21.35;11.30;;;;;;;;;;2122770;28;20047;-46
2022/12/15 02:40:06;;;;;;;22.70;13.75;;;;;;;;;;2122837;28;20043;-42
2022/12/15 02:41:22;;;;;;;18.92;11.18;;;;;;;;;;2122758;28;20047;-46
2022/12/15 02:42:24;;;;;;;18.90;10.35;;;;;;;;;;2121190;28;20108;-47
2022/12/15 02:43:25;;;;;;;19.70;10.05;;;;;;;;;;2121625;28;20070;-46
2022/12/15 02:44:28;;;;;;;21.75;13.00;;;;;;;;;;2122475;28;20043;-46
2022/12/15 02:45:32;;;;;;;21.27;11.45;;;;;;;;;;2122673;28;20097;-45
2022/12/15 02:46:37;;;;;;;21.35;10.95;;;;;;;;;;2122843;28;20119;-46
2022/12/15 02:47:44;;;;;;;23.38;10.40;;;;;;;;;;2122827;28;20104;-42
2022/12/15 02:48:49;;;;;;;21.55;11.60;;;;;;;;;;2122973;28;20058;-42
2022/12/15 02:49:59;;;;;;;22.92;12.57;;;;;;;;;;2122637;28;20449;-46
2022/12/15 02:51:08;;;;;;;21.95;11.40;;;;;;;;;;2122903;28;20047;-46
2022/12/15 02:52:18;;;;;;;23.60;11.57;;;;;;;;;;2122662;28;20476;-46
2022/12/15 02:53:28;;;;;;;21.67;10.45;;;;;;;;;;2122792;28;20050;-42
2022/12/15 02:54:34;;;;;;;21.15;10.07;;;;;;;;;;2122737;28;20187;-46
2022/12/15 02:55:41;;;;;;;18.50;10.93;;;;;;;;;;2122785;28;20066;-46
2022/12/15 02:56:44;;;;;;;18.67;9.13;;;;;;;;;;2122731;28;20043;-44
2022/12/15 02:57:50;;;;;;;18.48;10.93;;;;;;;;;;2122795;28;20050;-46
2022/12/15 02:58:57;;;;;;;20.52;11.00;;;;;;;;;;2122705;28;20384;-46
2022/12/15 03:00:00;;;;;;;19.63;9.32;;;;;;;;;;2122813;28;20043;-42
2022/12/15 03:01:04;;;;;;;18.38;10.02;;;;;;;;;;2122480;28;20043;-45
2022/12/15 03:02:07;;;;;;;18.25;8.85;;;;;;;;;;2121937;28;20047;-42
2022/12/15 03:03:09;;;;;;;20.05;11.80;;;;;;;;;;2122647;28;20482;-46
2022/12/15 03:04:11;;;;;;;19.95;11.32;;;;;;;;;;2122608;28;20161;-46
2022/12/15 03:05:13;;;;;;;19.17;9.25;;;;;;;;;;2122670;28;20457;-41
2022/12/15 03:06:14;;;;;;;19.10;9.77;;;;;;;;;;2122728;28;20039;-46
2022/12/15 03:07:15;;;;;;;19.88;11.15;;;;;;;;;;2122696;28;20047;-46
2022/12/15 03:08:16;;;;;;;20.47;9.73;;;;;;;;;;2122713;28;20047;-47
2022/12/15 03:09:17;;;;;;;21.50;10.32;;;;;;;;;;2122633;28;20411;-46
2022/12/15 03:10:19;;;;;;;18.10;9.52;;;;;;;;;;2122245;28;20075;-46
2022/12/15 03:11:20;;;;;;;19.63;11.15;;;;;;;;;;2122455;28;20103;-46
2022/12/15 03:12:21;;;;;;;20.10;9.93;;;;;;;;;;2122710;28;20046;-46
2022/12/15 03:13:22;;;;;;;17.70;9.43;;;;;;;;;;2122711;28;20055;-42
2022/12/15 03:14:24;;;;;;;22.73;10.82;;;;;;;;;;2122460;28;20049;-42
2022/12/15 03:15:24;;;;;;;;;;;;;;;;;;2123009;28;20506;-47
2022/12/15 03:16:30;;;;;;;20.70;9.13;;;;;;;;;;2122571;28;19970;-42
2022/12/15 03:17:31;;;;;;;19.40;9.65;;;;;;;;;;2122594;28;20070;-45
2022/12/15 03:18:33;;;;;;;18.90;9.75;;;;;;;;;;2122553;28;20399;-46
2022/12/15 03:19:33;;;;;;;18.02;9.32;;;;;;;;;;2122598;28;20125;-42
2022/12/15 03:20:35;;;;;;;21.67;12.02;;;;;;;;;;2122578;27;20063;-46
2022/12/15 03:21:36;;;;;;;20.13;9.82;;;;;;;;;;2122840;28;20073;-42
2022/12/15 06:37:06;;;;;;;34.61;18.51;;;;;;;;;;4294018;27;20604;-40
2022/12/15 06:38:07;;;;;;;33.13;16.33;;;;;;;;;;2138425;27;20050;-40
2022/12/15 06:39:10;;;;;;;27.83;13.37;;;;;;;;;;2138576;27;20379;-40
2022/12/15 06:40:11;;;;;;;31.33;16.63;;;;;;;;;;2136420;27;20047;-41
2022/12/15 06:41:14;;;;;;;31.10;15.50;;;;;;;;;;2129776;27;20038;-41
2022/12/15 06:42:15;;;;;;;35.55;18.52;;;;;;;;;;2129819;27;20340;-42
2022/12/15 06:43:16;;;;;;;31.23;17.17;;;;;;;;;;2129859;27;20427;-41
2022/12/15 06:44:17;;;;;;;29.30;14.90;;;;;;;;;;2129650;27;20051;-42
2022/12/15 06:45:18;;;;;;;30.83;17.60;;;;;;;;;;2130088;27;20047;-42
2022/12/15 06:46:19;;;;;;;29.92;16.10;;;;;;;;;;2130311;27;20063;-41
2022/12/15 06:47:20;;;;;;;28.33;13.73;;;;;;;;;;2129753;27;20091;-41
2022/12/15 06:48:21;;;;;;;36.13;19.40;;;;;;;;;;2129705;27;20399;-40
2022/12/15 06:49:23;;;;;;;32.55;18.30;;;;;;;;;;2129716;27;20051;-41
2022/12/15 06:50:24;;;;;;;30.38;16.50;;;;;;;;;;2129737;27;20047;-41
2022/12/15 06:51:25;;;;;;;27.70;14.80;;;;;;;;;;2129671;27;20077;-41
2022/12/15 06:52:26;;;;;;;33.28;18.15;;;;;;;;;;2129792;27;20047;-42
2022/12/15 06:53:28;;;;;;;38.50;20.77;;;;;;;;;;2129779;27;20047;-42
2022/12/15 06:54:29;;;;;;;32.90;16.27;;;;;;;;;;2129727;27;20045;-41
2022/12/15 06:55:30;;;;;;;40.53;23.00;;;;;;;;;;2129494;27;20085;-42
2022/12/15 06:56:32;;;;;;;28.10;14.98;;;;;;;;;;2129629;27;20050;-42
2022/12/15 06:57:36;;;;;;;35.00;19.23;;;;;;;;;;2129793;27;20051;-42
2022/12/15 06:58:37;;;;;;;33.38;17.13;;;;;;;;;;2129838;27;20046;-45
2022/12/15 06:59:38;;;;;;;32.23;18.20;;;;;;;;;;2129811;27;20043;-47
2022/12/15 07:00:40;;;;;;;29.67;16.65;;;;;;;;;;2129259;27;20483;-48
2022/12/15 07:01:41;;;;;;;32.63;17.33;;;;;;;;;;2129717;27;20046;-46
2022/12/15 07:02:42;;;;;;;32.30;17.63;;;;;;;;;;2129949;27;20047;-46
2022/12/15 07:03:51;;;;;;;29.92;15.82;;;;;;;;;;2129796;27;20047;-46
2022/12/15 07:04:52;;;;;;;;;;;;;;;;;;2130288;27;20043;-46
2022/12/15 07:06:00;;;;;;;33.15;15.52;;;;;;;;;;2129643;27;20329;-46
2022/12/15 07:07:01;;;;;;;30.90;14.68;;;;;;;;;;2129695;27;20051;-46
2022/12/15 07:08:02;;;;;;;32.67;19.02;;;;;;;;;;2129509;27;20107;-46
2022/12/15 07:09:06;;;;;;;27.73;14.15;;;;;;;;;;2129793;27;20047;-48
2022/12/15 07:10:07;;;;;;;32.97;17.70;;;;;;;;;;2129553;27;20046;-47
2022/12/15 07:11:10;;;;;;;32.45;17.95;;;;;;;;;;2129630;27;20051;-46
2022/12/15 07:12:11;;;;;;;31.73;17.67;;;;;;;;;;2129559;27;20151;-47
2022/12/15 07:13:13;;;;;;;26.15;12.57;;;;;;;;;;2129709;27;20042;-46
2022/12/15 07:14:14;;;;;;;33.22;19.20;;;;;;;;;;2129552;27;20050;-46
2022/12/15 07:15:15;;;;;;;32.10;16.35;;;;;;;;;;2129582;27;20047;-46
2022/12/15 07:16:16;;;;;;;32.90;17.08;;;;;;;;;;2129943;27;20049;-47
2022/12/15 07:17:18;;;;;;;32.60;18.33;;;;;;;;;;2129611;27;20173;-46
2022/12/15 07:18:19;;;;;;;32.33;16.50;;;;;;;;;;2129493;27;20437;-47
2022/12/15 07:19:20;;;;;;;28.85;17.20;;;;;;;;;;2129892;27;20059;-41
2022/12/15 07:20:21;;;;;;;31.73;17.75;;;;;;;;;;2129614;27;20050;-46
2022/12/15 07:21:29;;;;;;;26.55;14.35;;;;;;;;;;2129611;27;20042;-50
2022/12/15 07:22:30;;;;;;;30.98;17.45;;;;;;;;;;2129834;27;20054;-48
2022/12/15 07:23:32;;;;;;;27.17;15.10;;;;;;;;;;2129466;27;20054;-50
2022/12/15 07:24:53;;;;;;;31.25;16.13;;;;;;;;;;2129516;27;20039;-48
2022/12/15 07:25:54;;;;;;;29.88;16.52;;;;;;;;;;2129561;27;20380;-42
2022/12/15 07:26:55;;;;;;;28.08;12.70;;;;;;;;;;2129637;27;20050;-42
2022/12/15 07:27:56;;;;;;;33.40;18.60;;;;;;;;;;2129432;27;20039;-42
2022/12/15 07:28:57;;;;;;;28.30;14.37;;;;;;;;;;2129502;27;20455;-42
2022/12/15 07:29:58;;;;;;;30.25;18.75;;;;;;;;;;2129384;27;20039;-41
2022/12/15 07:31:03;;;;;;;26.60;13.85;;;;;;;;;;2129585;27;20043;-41
2022/12/15 07:32:04;;;;;;;30.23;17.27;;;;;;;;;;2129334;27;20074;-42
2022/12/15 07:33:06;;;;;;;27.55;16.38;;;;;;;;;;2129534;27;20489;-42
2022/12/15 07:34:07;;;;;;;29.92;15.20;;;;;;;;;;2129361;27;20062;-41
2022/12/15 07:35:08;;;;;;;28.92;16.10;;;;;;;;;;2128961;27;20104;-41
2022/12/15 07:36:09;;;;;;;27.13;16.33;;;;;;;;;;2129346;27;20487;-41
2022/12/15 07:37:10;;;;;;;30.65;17.05;;;;;;;;;;2123282;27;20576;-41
2022/12/15 07:38:11;;;;;;;28.50;15.75;;;;;;;;;;2123661;28;20132;-41
2022/12/15 07:39:14;;;;;;;29.63;16.25;;;;;;;;;;2123878;28;20043;-41
2022/12/15 07:40:16;;;;;;;26.08;13.68;;;;;;;;;;2123649;28;20051;-41
2022/12/15 07:41:17;;;;;;;31.27;17.67;;;;;;;;;;2123483;28;20047;-41
2022/12/15 07:42:18;;;;;;;30.67;14.80;;;;;;;;;;2123673;28;20099;-41
2022/12/15 07:43:20;;;;;;;30.83;15.57;;;;;;;;;;2123668;28;20479;-41
2022/12/15 07:44:21;;;;;;;30.38;18.33;;;;;;;;;;2123740;28;20043;-41
2022/12/15 07:45:22;;;;;;;30.98;16.13;;;;;;;;;;2123567;28;20043;-41
2022/12/15 07:46:24;;;;;;;30.07;18.40;;;;;;;;;;2123948;28;20047;-46
2022/12/15 07:47:26;;;;;;;29.35;17.63;;;;;;;;;;2123915;28;20054;-41
2022/12/15 07:48:28;;;;;;;;;;;;;;;;;;2124280;28;20046;-41
2022/12/15 07:49:29;;;;;;;25.20;14.73;;;;;;;;;;2123722;28;19927;-40
2022/12/15 07:50:30;;;;;;;31.30;15.10;;;;;;;;;;2123694;28;20531;-47
2022/12/15 07:51:31;;;;;;;29.40;16.60;;;;;;;;;;2123676;28;20082;-48
2022/12/15 07:52:32;;;;;;;30.58;17.90;;;;;;;;;;2123607;28;20100;-50
2022/12/15 07:53:33;;;;;;;29.23;17.40;;;;;;;;;;2123583;28;20437;-46
2022/12/15 07:54:35;;;;;;;28.52;16.02;;;;;;;;;;2123617;28;20111;-46
2022/12/15 07:55:37;;;;;;;30.10;17.17;;;;;;;;;;2123435;28;20043;-47
2022/12/15 07:56:58;;;;;;;27.02;14.73;;;;;;;;;;2123547;28;20046;-46
2022/12/15 07:57:59;;;;;;;30.77;18.30;;;;;;;;;;2123686;28;20047;-48
2022/12/15 07:59:00;;;;;;;29.53;17.47;;;;;;;;;;2123605;28;20527;-50
2022/12/15 08:00:04;;;;;;;30.65;15.57;;;;;;;;;;2123464;28;20043;-47
2022/12/15 08:01:07;;;;;;;26.52;15.13;;;;;;;;;;2123483;28;20384;-42
2022/12/15 08:02:08;;;;;;;29.02;16.25;;;;;;;;;;2123426;28;20047;-42
2022/12/15 08:03:09;;;;;;;30.85;16.98;;;;;;;;;;2124036;28;20076;-47
2022/12/15 08:04:11;;;;;;;28.20;16.57;;;;;;;;;;2123561;28;20126;-47
2022/12/15 08:05:12;;;;;;;34.13;18.88;;;;;;;;;;2123336;28;20287;-48
2022/12/15 08:06:13;;;;;;;30.70;16.88;;;;;;;;;;2123738;28;20047;-47
2022/12/15 08:07:16;;;;;;;29.20;17.40;;;;;;;;;;2123575;28;20051;-47
2022/12/15 08:08:17;;;;;;;27.15;16.48;;;;;;;;;;2123584;28;20065;-41
2022/12/15 08:09:18;;;;;;;28.67;17.75;;;;;;;;;;2123511;28;20518;-42
2022/12/15 08:10:20;;;;;;;28.67;15.18;;;;;;;;;;2123513;28;20051;-42
2022/12/15 08:11:23;;;;;;;33.10;18.95;;;;;;;;;;2123537;28;20066;-42
2022/12/15 08:12:25;;;;;;;27.33;15.88;;;;;;;;;;2123679;28;20057;-46
2022/12/15 08:13:26;;;;;;;26.63;13.77;;;;;;;;;;2123424;28;20407;-47
2022/12/15 08:14:47;;;;;;;30.10;17.75;;;;;;;;;;2123436;28;20043;-47
2022/12/15 08:15:53;;;;;;;29.60;17.25;;;;;;;;;;2123354;28;20047;-47
2022/12/15 08:16:54;;;;;;;26.77;15.88;;;;;;;;;;2123391;28;20437;-49
2022/12/15 08:17:55;;;;;;;29.38;17.73;;;;;;;;;;2123566;28;20043;-46
2022/12/15 08:18:56;;;;;;;30.60;16.52;;;;;;;;;;2123513;27;20051;-46
2022/12/15 08:19:58;;;;;;;28.88;17.52;;;;;;;;;;2123509;28;20122;-46
2022/12/15 08:20:59;;;;;;;;;;;;;;;;;;2123954;27;20047;-46
2022/12/15 08:22:00;;;;;;;28.67;14.98;;;;;;;;;;2123617;28;19923;-46
2022/12/15 08:23:01;;;;;;;31.02;18.70;;;;;;;;;;2123578;28;20156;-46
2022/12/15 08:24:03;;;;;;;29.42;18.58;;;;;;;;;;2123575;28;20487;-48
2022/12/15 08:25:04;;;;;;;27.70;16.65;;;;;;;;;;2123507;27;20062;-48
2022/12/15 08:26:07;;;;;;;28.73;13.38;;;;;;;;;;2123376;28;20050;-48
2022/12/15 08:27:08;;;;;;;30.65;18.85;;;;;;;;;;2123330;28;20411;-47
2022/12/15 08:28:09;;;;;;;27.55;15.00;;;;;;;;;;2123449;28;20047;-47
2022/12/15 08:29:11;;;;;;;27.38;16.67;;;;;;;;;;2123313;28;20519;-48
2022/12/15 08:30:33;;;;;;;27.25;14.55;;;;;;;;;;2123190;28;20508;-46
2022/12/15 08:31:34;;;;;;;29.23;17.27;;;;;;;;;;2123406;28;20047;-47
2022/12/15 08:32:36;;;;;;;28.97;17.33;;;;;;;;;;2123327;28;20434;-48
2022/12/15 08:33:37;;;;;;;26.55;15.98;;;;;;;;;;2123467;28;20050;-46
2022/12/15 08:34:38;;;;;;;27.70;17.50;;;;;;;;;;2123208;28;20093;-47
2022/12/15 08:35:39;;;;;;;28.05;13.15;;;;;;;;;;2123183;27;20050;-47
2022/12/15 08:36:57;;;;;;;26.35;15.88;;;;;;;;;;2123425;28;20047;-46
2022/12/15 08:38:00;;;;;;;26.50;16.10;;;;;;;;;;2123247;28;20430;-46
2022/12/15 08:39:06;;;;;;;27.90;17.27;;;;;;;;;;2123198;28;20471;-46
2022/12/15 08:40:08;;;;;;;24.50;16.25;;;;;;;;;;2123302;27;20050;-46
2022/12/15 08:41:10;;;;;;;26.98;17.00;;;;;;;;;;2123355;28;20058;-47
2022/12/15 08:42:11;;;;;;;29.35;16.13;;;;;;;;;;2123112;28;20488;-46
2022/12/15 08:43:13;;;;;;;27.77;17.25;;;;;;;;;;2123450;28;20050;-46
2022/12/15 08:44:15;;;;;;;30.88;16.95;;;;;;;;;;2123278;28;20039;-47
2022/12/15 08:45:16;;;;;;;27.67;15.88;;;;;;;;;;2123149;27;20504;-47
2022/12/15 08:46:19;;;;;;;28.77;16.67;;;;;;;;;;2123602;28;20046;-47
2022/12/15 08:47:20;;;;;;;27.50;16.25;;;;;;;;;;2123265;28;20054;-46
2022/12/15 08:48:21;;;;;;;26.40;16.95;;;;;;;;;;2122480;27;20483;-47
2022/12/15 08:49:22;;;;;;;30.20;16.73;;;;;;;;;;2123205;28;20055;-46
2022/12/15 08:50:24;;;;;;;25.90;14.18;;;;;;;;;;2123178;27;20100;-46
2022/12/15 08:51:27;;;;;;;28.77;17.77;;;;;;;;;;2123318;28;20043;-47
2022/12/15 08:52:28;;;;;;;25.42;12.27;;;;;;;;;;2123580;28;20051;-42
2022/12/15 08:53:30;;;;;;;26.45;16.80;;;;;;;;;;2123357;28;20046;-46
2022/12/15 08:54:33;;;;;;;26.63;15.63;;;;;;;;;;2123434;28;20088;-42
2022/12/15 08:55:34;;;;;;;27.92;17.15;;;;;;;;;;2123056;27;20510;-42
2022/12/15 08:56:36;;;;;;;23.75;13.52;;;;;;;;;;2123287;28;20051;-42
2022/12/15 08:57:37;;;;;;;26.33;15.95;;;;;;;;;;2123169;28;20491;-42
2022/12/15 08:58:38;;;;;;;25.75;15.35;;;;;;;;;;2123501;28;20054;-48
2022/12/15 08:59:40;;;;;;;24.35;16.55;;;;;;;;;;2123351;28;20481;-47
2022/12/15 09:00:40;;;;;;;27.15;15.27;;;;;;;;;;2123024;27;20480;-47
2022/12/15 09:01:42;;;;;;;25.30;15.95;;;;;;;;;;2123272;28;20063;-48
2022/12/15 09:02:43;;;;;;;23.67;14.48;;;;;;;;;;2123281;28;20061;-46
2022/12/15 09:03:44;;;;;;;20.42;11.05;;;;;;;;;;2123082;28;20507;-48
2022/12/15 09:04:45;;;;;;;25.30;15.85;;;;;;;;;;2123191;28;20054;-47
2022/12/15 09:05:46;;;;;;;26.70;16.38;;;;;;;;;;2123141;27;20035;-48
2022/12/15 09:06:50;;;;;;;22.52;11.77;;;;;;;;;;2123247;28;20043;-42
2022/12/15 09:07:54;;;;;;;23.60;15.55;;;;;;;;;;2123230;28;20043;-42
2022/12/15 09:08:55;;;;;;;23.15;14.90;;;;;;;;;;2123137;28;20047;-42
2022/12/15 09:09:56;;;;;;;25.67;16.23;;;;;;;;;;2122904;27;20039;-42
2022/12/15 09:10:58;;;;;;;28.80;16.38;;;;;;;;;;2123130;27;20069;-42
2022/12/15 09:12:00;;;;;;;23.20;14.95;;;;;;;;;;2123218;28;20051;-41
2022/12/15 09:13:00;;;;;;;23.00;13.02;;;;;;;;;;2123114;28;20043;-42
2022/12/15 09:14:02;;;;;;;25.83;16.40;;;;;;;;;;2123229;28;20472;-42
2022/12/15 09:15:04;;;;;;;27.00;16.30;;;;;;;;;;2123121;27;20050;-42
2022/12/15 09:16:06;;;;;;;23.35;15.48;;;;;;;;;;2123107;27;20092;-46
2022/12/15 09:17:12;;;;;;;22.90;14.18;;;;;;;;;;2123274;28;20067;-46
2022/12/15 09:18:13;;;;;;;22.40;14.35;;;;;;;;;;2123041;27;20302;-47
2022/12/15 09:19:14;;;;;;;26.70;14.57;;;;;;;;;;2123178;28;20060;-47
2022/12/15 09:20:15;;;;;;;25.70;15.82;;;;;;;;;;2123218;27;20047;-47
2022/12/15 09:21:21;;;;;;;19.25;11.15;;;;;;;;;;2123105;28;20130;-46
2022/12/15 09:22:22;;;;;;;24.08;14.90;;;;;;;;;;2123349;28;20112;-46
2022/12/15 09:23:23;;;;;;;23.30;14.90;;;;;;;;;;2123020;28;20047;-46
2022/12/15 09:24:25;;;;;;;24.08;14.52;;;;;;;;;;2123473;28;20527;-48
2022/12/15 09:25:35;;;;;;;20.70;11.95;;;;;;;;;;2123086;27;20050;-43
2022/12/15 09:26:36;;;;;;;24.33;14.90;;;;;;;;;;2123040;28;20047;-43
2022/12/15 09:27:38;;;;;;;24.17;14.82;;;;;;;;;;2122677;28;20043;-42
2022/12/15 09:28:39;;;;;;;22.35;15.07;;;;;;;;;;2123039;28;20039;-42
2022/12/15 09:29:41;;;;;;;21.20;11.82;;;;;;;;;;2122926;28;20050;-42
2022/12/15 09:30:41;;;;;;;24.10;14.82;;;;;;;;;;2122928;27;20043;-43
2022/12/15 09:31:45;;;;;;;21.47;11.53;;;;;;;;;;2122974;28;20122;-42
2022/12/15 09:32:46;;;;;;;23.25;13.60;;;;;;;;;;2122946;28;20361;-42
2022/12/15 09:33:48;;;;;;;20.55;14.10;;;;;;;;;;2122906;28;20043;-42
2022/12/15 09:34:49;;;;;;;;;;;;;;;;;;2121592;28;20510;-43
2022/12/15 09:35:50;;;;;;;22.50;11.77;;;;;;;;;;2114291;28;20002;-42
2022/12/15 09:36:51;;;;;;;24.33;15.00;;;;;;;;;;2114800;28;20503;-43
2022/12/15 09:37:52;;;;;;;22.52;13.63;;;;;;;;;;2114554;28;20137;-43
2022/12/15 09:38:54;;;;;;;22.98;13.90;;;;;;;;;;2114411;28;20044;-43
2022/12/15 09:39:55;;;;;;;21.77;13.73;;;;;;;;;;2114309;28;20416;-43
2022/12/15 09:40:56;;;;;;;20.63;12.10;;;;;;;;;;2114451;28;20040;-43
2022/12/15 09:41:58;;;;;;;24.63;14.93;;;;;;;;;;2114784;28;20048;-43
2022/12/15 09:43:00;;;;;;;23.13;14.75;;;;;;;;;;2114285;28;20554;-42
2022/12/15 09:44:23;;;;;;;23.00;14.63;;;;;;;;;;2114624;28;20075;-48
2022/12/15 09:45:26;;;;;;;25.27;15.82;;;;;;;;;;2114296;28;20381;-47
2022/12/15 09:46:34;;;;;;;22.02;14.30;;;;;;;;;;2114605;28;20100;-42
2022/12/15 09:47:41;;;;;;;23.25;11.52;;;;;;;;;;2114348;28;20067;-42
2022/12/15 09:48:44;;;;;;;23.15;15.48;;;;;;;;;;2114556;28;20136;-43
2022/12/15 09:49:49;;;;;;;23.02;11.70;;;;;;;;;;2114243;28;20085;-43
2022/12/15 09:50:53;;;;;;;25.45;15.45;;;;;;;;;;2114714;28;20039;-43
2022/12/15 09:51:58;;;;;;;23.35;15.15;;;;;;;;;;2114309;28;20036;-43
2022/12/15 09:53:00;;;;;;;24.48;16.02;;;;;;;;;;2114480;28;20044;-43
2022/12/15 09:54:00;;;;;;;23.50;14.73;;;;;;;;;;2114317;28;20044;-43
2022/12/15 09:55:15;;;;;;;23.63;14.73;;;;;;;;;;2114291;28;20131;-42
2022/12/15 09:56:19;;;;;;;22.52;13.05;;;;;;;;;;2114282;28;20040;-43
2022/12/15 09:57:24;;;;;;;26.20;16.10;;;;;;;;;;2114647;28;20047;-43
2022/12/15 09:58:31;;;;;;;22.15;12.43;;;;;;;;;;2114292;28;20385;-43
2022/12/15 09:59:38;;;;;;;25.83;15.85;;;;;;;;;;2114132;28;20047;-43
2022/12/15 10:00:40;;;;;;;22.25;14.07;;;;;;;;;;2114195;28;20496;-43
2022/12/15 10:01:49;;;;;;;21.85;13.77;;;;;;;;;;2114258;28;20036;-43
2022/12/15 10:03:02;;;;;;;25.27;15.13;;;;;;;;;;2114284;28;20487;-43
2022/12/15 10:04:06;;;;;;;22.10;13.88;;;;;;;;;;2114387;28;20074;-42
2022/12/15 10:05:11;;;;;;;24.15;14.35;;;;;;;;;;2114206;28;20104;-43
2022/12/15 10:06:14;;;;;;;22.80;14.18;;;;;;;;;;2114278;28;20047;-43
2022/12/15 10:07:26;;;;;;;21.92;14.63;;;;;;;;;;2114258;28;20044;-43
2022/12/15 10:08:29;;;;;;;22.67;12.27;;;;;;;;;;2114278;28;20488;-43
2022/12/15 10:09:30;;;;;;;23.55;14.60;;;;;;;;;;2114319;28;20108;-43
2022/12/15 10:10:32;;;;;;;23.23;14.65;;;;;;;;;;2114235;28;20059;-42
2022/12/15 10:11:37;;;;;;;23.45;14.02;;;;;;;;;;2114203;28;20404;-43
2022/12/15 10:12:40;;;;;;;23.35;15.25;;;;;;;;;;2114554;28;20040;-42
2022/12/15 10:13:59;;;;;;;21.38;11.60;;;;;;;;;;2114228;28;20044;-43
2022/12/15 10:15:05;;;;;;;23.70;14.85;;;;;;;;;;2114207;28;20047;-43
2022/12/15 10:16:15;;;;;;;22.70;15.40;;;;;;;;;;2114228;28;20074;-43
2022/12/15 10:17:20;;;;;;;21.73;13.27;;;;;;;;;;2114364;28;20123;-43
2022/12/15 10:18:22;;;;;;;22.75;15.15;;;;;;;;;;2114239;28;20044;-43
2022/12/15 10:19:26;;;;;;;23.92;15.32;;;;;;;;;;2114206;28;20050;-43
2022/12/15 10:20:29;;;;;;;21.52;11.07;;;;;;;;;;2114376;28;20055;-43
2022/12/15 10:21:30;;;;;;;23.33;15.43;;;;;;;;;;2114299;28;20058;-43
2022/12/15 10:22:33;;;;;;;25.38;14.73;;;;;;;;;;2114346;28;20054;-43
2022/12/15 10:23:35;;;;;;;22.65;14.88;;;;;;;;;;2115424;28;20406;-43
2022/12/15 10:24:37;;;;;;;19.95;11.05;;;;;;;;;;2122712;28;20096;-43
2022/12/15 10:26:00;;;;;;;20.50;14.30;;;;;;;;;;2122540;28;20104;-43
2022/12/15 10:27:05;;;;;;;20.63;13.60;;;;;;;;;;2122760;27;20069;-43
2022/12/15 10:28:10;;;;;;;20.63;13.32;;;;;;;;;;2122574;28;20043;-42
2022/12/15 10:29:23;;;;;;;24.15;16.15;;;;;;;;;;2122785;28;20043;-47
2022/12/15 10:30:24;;;;;;;20.35;13.48;;;;;;;;;;2122338;27;20046;-43
2022/12/15 10:31:30;;;;;;;18.45;12.45;;;;;;;;;;2122678;28;20043;-47
2022/12/15 10:32:38;;;;;;;23.98;14.77;;;;;;;;;;2122146;28;20051;-43
2022/12/15 10:33:44;;;;;;;;;;;;;;;;;;2122642;28;20498;-43
2022/12/15 10:34:50;;;;;;;20.50;11.65;;;;;;;;;;2121845;28;20313;-42
2022/12/15 10:35:51;;;;;;;21.15;13.77;;;;;;;;;;2121821;27;20403;-43
2022/12/15 10:36:53;;;;;;;20.95;13.88;;;;;;;;;;2122025;28;20118;-47
2022/12/15 10:37:56;;;;;;;20.05;13.70;;;;;;;;;;2122630;28;20054;-47